MSSS/SAL METAR and TAF weather

Enter ICAO airport designator
Station Type Date Time Source
MSSS METAR 2018/12/11 21:50 UTC NOAA

MSSS 112150Z 34015G25KT CAVOK 24/15 Q1017 A3004


Station Type Date Time Source
MSSS Decoded METAR 2018/12/11 21:50 UTC NOAA

San Salvador / Ilopango, El Salvador (MSSS) 13-42N 089-07W 621M
Dec 11, 2018 - 04:50 PM EST / 2018.12.11 2150 UTC
Wind: from the NNW (340 degrees) at 17 MPH (15 KT) gusting to 29 MPH (25 KT):0
Visibility: greater than 7 mile(s):0
Temperature: 75 F (24 C)
Dew Point: 59 F (15 C)
Relative Humidity: 57%
Pressure (altimeter): 30.04 in. Hg (1017 hPa)
ob: MSSS 112150Z 34015G25KT CAVOK 24/15 Q1017 A3004
cycle: 22

Station Type Date Time Source
MSSS TAF 2018/12/11 18:25 UTC NOAA

TAF MSSS 111525Z 1118/1218 02015G25KT 9999 FEW043 TX29/1118Z TN16/1212Z


Example: see airport list